createdAt,value
2022-12-27T04:04:32.397Z,100.00
2022-12-27T04:07:53.193Z,100.00
2022-12-27T04:11:13.889Z,100.00
2022-12-27T04:14:34.575Z,100.00
2022-12-27T04:17:56.474Z,100.00
2022-12-27T04:21:18.568Z,100.00
2022-12-27T04:24:39.321Z,100.00
2022-12-27T04:28:00.129Z,100.00
2022-12-27T04:31:20.982Z,100.00
2022-12-27T04:34:41.821Z,100.00
2022-12-27T04:37:52.797Z,100.00
2022-12-27T04:41:13.482Z,100.00
2022-12-27T04:44:37.262Z,100.00
2022-12-27T04:47:57.980Z,100.00
2022-12-27T04:51:24.275Z,100.00
2022-12-27T04:54:46.367Z,100.00
2022-12-27T04:57:56.814Z,100.00
2022-12-27T05:01:17.705Z,100.00
2022-12-27T05:04:28.130Z,100.00
2022-12-27T05:07:49.907Z,100.00
2022-12-27T05:11:12.002Z,100.00
2022-12-27T05:14:21.651Z,100.00
2022-12-27T05:17:31.319Z,100.00
2022-12-27T05:20:41.004Z,100.00
2022-12-27T05:24:05.341Z,100.00
2022-12-27T05:27:16.883Z,100.00
2022-12-27T05:30:26.557Z,100.00
2022-12-27T05:33:36.229Z,100.00
2022-12-27T05:36:45.883Z,100.00
2022-12-27T05:39:55.558Z,100.00
2022-12-27T05:43:06.525Z,100.00
2022-12-27T05:46:18.491Z,100.00
2022-12-27T05:49:28.285Z,100.00
2022-12-27T05:52:41.130Z,100.00
2022-12-27T05:55:55.152Z,100.00
2022-12-27T05:59:07.975Z,100.00
2022-12-27T07:23:13.083Z,100.00
2022-12-27T07:26:29.985Z,100.00
2022-12-27T07:29:45.279Z,100.00
2022-12-27T07:32:55.915Z,100.00
2022-12-27T07:36:08.484Z,100.00
2022-12-27T07:39:19.633Z,100.00
2022-12-27T07:42:29.841Z,100.00
2022-12-27T07:45:39.575Z,100.00
2022-12-27T07:48:50.349Z,100.00
2022-12-27T07:52:00.097Z,100.00
2022-12-27T07:55:11.454Z,100.00
2022-12-27T07:58:21.502Z,100.00
2022-12-27T08:02:01.641Z,100.00
2022-12-27T08:05:11.459Z,100.00
2022-12-27T08:08:25.982Z,100.00
2022-12-27T08:11:37.214Z,100.00
2022-12-27T08:14:46.947Z,100.00
2022-12-27T08:17:56.636Z,100.00
2022-12-27T08:21:06.589Z,100.00
2022-12-27T08:24:16.263Z,100.00
2022-12-27T08:27:27.672Z,100.00
2022-12-27T08:30:38.165Z,100.00
2022-12-27T08:33:47.911Z,100.00
2022-12-27T08:36:58.178Z,100.00
2022-12-27T08:40:08.918Z,100.00
2022-12-27T08:43:20.012Z,100.00
2022-12-27T08:46:29.825Z,100.00
2022-12-27T08:49:39.580Z,100.00
2022-12-27T08:52:49.212Z,100.00
2022-12-27T08:55:58.946Z,100.00
2022-12-27T08:59:10.066Z,100.00
2022-12-27T09:02:19.847Z,100.00
2022-12-27T09:05:34.172Z,100.00
2022-12-27T09:08:48.765Z,100.00
2022-12-27T09:11:58.531Z,100.00
2022-12-27T09:15:10.563Z,100.00
2022-12-27T09:18:20.283Z,100.00
2022-12-27T09:21:32.564Z,100.00
2022-12-27T09:24:42.313Z,100.00
2022-12-27T09:27:52.044Z,100.00
2022-12-27T09:31:05.750Z,100.00
2022-12-27T09:34:15.565Z,100.00
2022-12-27T09:37:25.319Z,100.00
2022-12-27T09:40:35.132Z,100.00
2022-12-27T09:43:57.889Z,100.00
2022-12-27T09:47:13.727Z,100.00
2022-12-27T09:50:31.200Z,100.00
2022-12-27T09:53:47.399Z,100.00
2022-12-27T10:00:35.526Z,100.00
2022-12-27T10:03:48.003Z,100.00
2022-12-27T10:07:09.464Z,100.00
2022-12-27T10:10:28.818Z,99.78
2022-12-27T10:13:48.350Z,99.05
2022-12-27T10:17:08.478Z,98.69
2022-12-27T10:20:31.858Z,99.31
2022-12-27T10:23:45.533Z,98.13
2022-12-27T10:26:56.368Z,98.87
2022-12-27T10:30:14.339Z,97.54
2022-12-27T10:33:29.303Z,96.91
2022-12-27T10:36:42.702Z,96.47
2022-12-27T10:39:52.343Z,94.31
2022-12-27T10:43:05.371Z,92.97
2022-12-27T10:46:19.289Z,92.90
2022-12-27T11:00:26.311Z,90.50
2022-12-27T11:03:36.426Z,89.61
2022-12-27T11:06:47.963Z,89.81
2022-12-27T11:10:08.638Z,88.71
2022-12-27T11:13:19.971Z,88.97
2022-12-27T11:16:35.896Z,89.00
2022-12-27T11:19:48.702Z,88.04
2022-12-27T11:23:02.205Z,86.73
2022-12-27T11:26:21.659Z,88.51
2022-12-27T11:29:33.557Z,89.42
2022-12-27T11:32:46.736Z,88.32
2022-12-27T11:36:00.128Z,88.10
2022-12-27T11:39:38.032Z,90.04
2022-12-27T11:42:55.474Z,89.56
2022-12-27T11:46:09.625Z,88.73
2022-12-27T11:49:24.053Z,88.83
2022-12-27T11:52:46.406Z,89.91
2022-12-27T11:56:11.574Z,90.98
2022-12-27T11:59:33.994Z,88.75
2022-12-27T12:02:59.850Z,87.16
2022-12-27T12:06:19.174Z,86.42
2022-12-27T12:14:24.313Z,86.83
2022-12-27T12:17:48.601Z,86.91
2022-12-27T12:21:23.020Z,86.98
2022-12-27T12:24:55.084Z,86.36
2022-12-27T12:28:56.863Z,86.91
2022-12-27T12:32:18.165Z,86.54
2022-12-27T12:35:45.941Z,87.66
2022-12-27T12:39:01.930Z,88.06
2022-12-27T12:42:46.134Z,87.28
2022-12-27T12:46:06.221Z,86.64
2022-12-27T12:49:33.515Z,86.64
2022-12-27T12:53:04.918Z,85.36
2022-12-27T12:56:32.540Z,86.96
2022-12-27T13:00:08.959Z,84.34
2022-12-27T13:03:42.468Z,84.61
2022-12-27T13:07:08.272Z,83.00
2022-12-27T13:10:44.143Z,85.60
2022-12-27T13:14:10.113Z,85.08
2022-12-27T13:17:26.307Z,86.84
2022-12-27T13:20:50.613Z,86.46
2022-12-27T13:24:11.589Z,88.32
2022-12-27T13:27:32.123Z,88.55
2022-12-27T13:30:53.979Z,88.30
2022-12-27T13:34:21.259Z,88.07
2022-12-27T13:37:45.735Z,89.14
2022-12-27T13:41:18.926Z,90.58
2022-12-27T13:44:44.134Z,92.47
2022-12-27T13:48:06.271Z,92.98
2022-12-27T13:51:38.165Z,93.12
2022-12-27T13:55:06.875Z,93.21
2022-12-27T13:58:35.612Z,95.42
2022-12-27T14:02:02.012Z,96.51
2022-12-27T14:05:44.480Z,96.42
2022-12-27T14:09:16.142Z,96.37
2022-12-27T14:12:52.440Z,96.21
2022-12-27T14:16:29.421Z,98.30
2022-12-27T14:19:59.611Z,96.99
2022-12-27T14:23:33.333Z,96.24
2022-12-27T14:27:07.528Z,95.33
2022-12-27T14:30:46.824Z,95.91
2022-12-27T14:34:30.570Z,94.73
2022-12-27T14:38:11.883Z,95.27
2022-12-27T14:41:54.954Z,96.95
2022-12-27T14:45:34.936Z,97.48
2022-12-27T14:49:19.017Z,95.70
2022-12-27T14:52:53.085Z,97.24
2022-12-27T14:56:17.373Z,98.03
2022-12-27T14:59:42.012Z,98.08
2022-12-27T15:03:17.116Z,95.84
2022-12-27T15:06:47.849Z,94.90
2022-12-27T15:10:05.626Z,96.05
2022-12-27T15:13:18.330Z,96.13
2022-12-27T15:16:42.117Z,95.99
2022-12-27T15:20:13.168Z,95.35
2022-12-27T15:23:34.262Z,96.00
2022-12-27T15:26:52.408Z,96.75
2022-12-27T15:30:12.259Z,96.32
2022-12-27T15:33:31.885Z,97.16
2022-12-27T15:36:42.788Z,98.81
2022-12-27T15:39:53.095Z,98.95
2022-12-27T15:43:10.583Z,99.16
2022-12-27T15:46:40.502Z,99.57
2022-12-27T15:50:11.419Z,99.50
2022-12-27T15:53:35.274Z,100.00
2022-12-27T15:56:59.732Z,100.00
2022-12-27T16:00:17.043Z,100.00
2022-12-27T16:03:34.867Z,100.00
2022-12-27T16:06:52.186Z,100.00
2022-12-27T16:10:30.452Z,100.00
2022-12-27T16:13:45.633Z,100.00
2022-12-27T16:17:05.427Z,100.00
2022-12-27T16:20:18.558Z,100.00
2022-12-27T16:23:33.589Z,100.00
2022-12-27T16:26:56.722Z,100.00
2022-12-27T16:30:07.394Z,100.00
2022-12-27T16:33:34.967Z,100.00
2022-12-27T16:36:47.252Z,100.00
2022-12-27T16:40:13.776Z,100.00
2022-12-27T16:43:38.073Z,100.00
2022-12-27T16:47:00.583Z,100.00
2022-12-27T16:50:30.223Z,100.00
2022-12-27T16:53:58.425Z,100.00
2022-12-27T16:57:31.744Z,100.00
2022-12-27T17:00:43.599Z,100.00
2022-12-27T17:03:54.113Z,100.00
2022-12-27T17:07:03.886Z,100.00
2022-12-27T17:10:31.360Z,100.00
2022-12-27T17:13:47.768Z,100.00
2022-12-27T17:16:59.621Z,100.00
2022-12-27T17:20:17.714Z,100.00
2022-12-27T17:23:27.499Z,100.00
2022-12-27T17:26:56.236Z,100.00
2022-12-27T17:30:16.254Z,100.00
2022-12-27T17:33:37.789Z,100.00
2022-12-27T17:36:55.499Z,100.00
2022-12-27T17:40:19.286Z,100.00
2022-12-27T17:43:51.462Z,100.00
2022-12-27T17:47:15.968Z,100.00
2022-12-27T17:50:27.925Z,100.00
2022-12-27T17:53:57.631Z,100.00
2022-12-27T17:57:23.224Z,100.00
2022-12-27T18:00:36.080Z,100.00
2022-12-27T18:03:48.517Z,100.00
2022-12-27T18:07:04.179Z,100.00
2022-12-27T18:10:21.367Z,100.00
2022-12-27T18:13:33.629Z,100.00
2022-12-27T18:16:43.374Z,100.00
2022-12-27T18:19:55.959Z,100.00
2022-12-27T18:23:16.882Z,100.00
2022-12-27T18:26:36.028Z,100.00
2022-12-27T18:29:46.368Z,100.00
2022-12-27T18:32:57.839Z,100.00
2022-12-27T18:36:12.436Z,100.00
2022-12-27T18:39:29.736Z,100.00
2022-12-27T18:42:44.935Z,100.00
2022-12-27T18:45:56.794Z,100.00
2022-12-27T18:49:07.640Z,100.00
2022-12-27T18:52:26.659Z,100.00
2022-12-27T18:55:37.268Z,100.00
2022-12-27T18:59:00.166Z,100.00
2022-12-27T19:02:32.629Z,100.00
2022-12-27T19:05:59.535Z,100.00
2022-12-27T19:09:16.545Z,100.00
2022-12-27T19:12:34.022Z,100.00
2022-12-27T19:15:45.162Z,100.00
2022-12-27T19:18:57.042Z,100.00
2022-12-27T19:22:31.651Z,100.00
2022-12-27T19:25:43.908Z,100.00
2022-12-27T19:29:01.674Z,100.00
2022-12-27T19:32:11.787Z,100.00
2022-12-27T19:35:21.732Z,100.00
2022-12-27T19:38:34.224Z,100.00
2022-12-27T19:41:45.650Z,100.00
2022-12-27T19:44:55.642Z,100.00
2022-12-27T19:48:07.940Z,100.00
2022-12-27T19:51:20.646Z,100.00
2022-12-27T19:54:31.928Z,100.00
2022-12-27T19:57:44.363Z,100.00
2022-12-27T20:00:54.248Z,100.00
2022-12-27T20:04:04.241Z,100.00
2022-12-27T20:07:21.282Z,100.00
2022-12-27T20:10:31.314Z,100.00
2022-12-27T20:13:42.632Z,100.00
2022-12-27T20:16:52.534Z,100.00
2022-12-27T20:20:03.189Z,100.00
2022-12-27T20:23:17.020Z,100.00
2022-12-27T20:26:27.369Z,100.00
2022-12-27T20:29:38.936Z,100.00
2022-12-27T20:32:48.916Z,100.00
2022-12-27T20:35:59.718Z,100.00
2022-12-27T20:39:09.567Z,100.00
2022-12-27T20:42:20.243Z,100.00
2022-12-27T20:45:31.359Z,100.00
